sensor_id;sensor_type;location;lat;lon;timestamp;P1;durP1;ratioP1;P2;durP2;ratioP2
962;SDS011;469;48.770;9.176;2022-12-07T01:10:33;11.63;;;6.22;;
962;SDS011;469;48.770;9.176;2022-12-07T01:13:00;13.13;;;6.70;;
962;SDS011;469;48.770;9.176;2022-12-07T01:15:27;13.38;;;6.38;;
962;SDS011;469;48.770;9.176;2022-12-07T01:17:54;15.30;;;7.35;;
962;SDS011;469;48.770;9.176;2022-12-07T01:20:20;11.05;;;5.85;;
962;SDS011;469;48.770;9.176;2022-12-07T01:22:48;12.68;;;6.63;;
962;SDS011;469;48.770;9.176;2022-12-07T01:25:14;13.68;;;6.05;;
962;SDS011;469;48.770;9.176;2022-12-07T01:27:42;12.73;;;6.78;;
962;SDS011;469;48.770;9.176;2022-12-07T01:30:10;12.43;;;6.32;;
962;SDS011;469;48.770;9.176;2022-12-07T01:32:38;13.35;;;6.43;;
962;SDS011;469;48.770;9.176;2022-12-07T01:35:05;13.40;;;7.05;;
962;SDS011;469;48.770;9.176;2022-12-07T01:37:33;16.60;;;6.70;;
962;SDS011;469;48.770;9.176;2022-12-07T01:40:02;14.95;;;7.38;;
962;SDS011;469;48.770;9.176;2022-12-07T01:42:29;14.95;;;6.80;;
962;SDS011;469;48.770;9.176;2022-12-07T01:48:01;17.17;;;7.57;;
962;SDS011;469;48.770;9.176;2022-12-07T01:50:29;12.18;;;6.82;;
962;SDS011;469;48.770;9.176;2022-12-07T01:52:57;11.40;;;6.45;;
962;SDS011;469;48.770;9.176;2022-12-07T01:55:27;13.55;;;6.55;;
962;SDS011;469;48.770;9.176;2022-12-07T01:57:55;15.77;;;6.03;;
962;SDS011;469;48.770;9.176;2022-12-07T02:00:22;13.45;;;6.90;;
962;SDS011;469;48.770;9.176;2022-12-07T02:02:51;12.50;;;6.18;;
962;SDS011;469;48.770;9.176;2022-12-07T02:05:21;13.95;;;6.85;;
962;SDS011;469;48.770;9.176;2022-12-07T02:07:48;15.32;;;7.57;;
962;SDS011;469;48.770;9.176;2022-12-07T02:10:18;15.18;;;7.85;;
962;SDS011;469;48.770;9.176;2022-12-07T02:12:48;20.20;;;7.93;;
962;SDS011;469;48.770;9.176;2022-12-07T02:15:17;19.60;;;8.90;;
962;SDS011;469;48.770;9.176;2022-12-07T02:17:48;13.77;;;6.90;;
962;SDS011;469;48.770;9.176;2022-12-07T02:20:23;14.57;;;7.20;;
962;SDS011;469;48.770;9.176;2022-12-07T02:26:03;16.13;;;7.43;;
962;SDS011;469;48.770;9.176;2022-12-07T02:28:58;12.57;;;6.65;;
962;SDS011;469;48.770;9.176;2022-12-07T02:31:36;13.07;;;7.32;;
962;SDS011;469;48.770;9.176;2022-12-07T02:34:11;14.65;;;6.90;;
962;SDS011;469;48.770;9.176;2022-12-07T02:36:46;14.50;;;8.02;;
962;SDS011;469;48.770;9.176;2022-12-07T02:39:19;17.15;;;7.00;;
962;SDS011;469;48.770;9.176;2022-12-07T02:41:51;15.00;;;7.10;;
962;SDS011;469;48.770;9.176;2022-12-07T02:44:24;14.20;;;7.13;;
962;SDS011;469;48.770;9.176;2022-12-07T02:46:54;15.93;;;6.57;;
962;SDS011;469;48.770;9.176;2022-12-07T02:49:23;14.57;;;6.57;;
962;SDS011;469;48.770;9.176;2022-12-07T02:51:52;17.00;;;7.95;;
962;SDS011;469;48.770;9.176;2022-12-07T02:54:20;18.30;;;7.40;;
962;SDS011;469;48.770;9.176;2022-12-07T02:56:48;16.98;;;7.22;;
962;SDS011;469;48.770;9.176;2022-12-07T02:59:20;15.02;;;7.10;;
962;SDS011;469;48.770;9.176;2022-12-07T03:02:01;12.88;;;6.55;;
962;SDS011;469;48.770;9.176;2022-12-07T03:04:39;15.73;;;7.10;;
962;SDS011;469;48.770;9.176;2022-12-07T03:07:14;13.70;;;6.50;;
962;SDS011;469;48.770;9.176;2022-12-07T03:09:51;14.80;;;7.18;;
962;SDS011;469;48.770;9.176;2022-12-07T03:12:24;14.10;;;6.85;;
962;SDS011;469;48.770;9.176;2022-12-07T03:14:57;16.50;;;7.50;;
962;SDS011;469;48.770;9.176;2022-12-07T03:17:27;13.52;;;6.53;;
962;SDS011;469;48.770;9.176;2022-12-07T03:19:58;13.50;;;6.78;;
962;SDS011;469;48.770;9.176;2022-12-07T03:22:28;15.27;;;6.50;;
962;SDS011;469;48.770;9.176;2022-12-07T03:24:58;13.77;;;6.78;;
962;SDS011;469;48.770;9.176;2022-12-07T03:27:26;13.70;;;6.97;;
962;SDS011;469;48.770;9.176;2022-12-07T03:30:00;13.75;;;6.47;;
962;SDS011;469;48.770;9.176;2022-12-07T03:32:30;13.75;;;6.78;;
962;SDS011;469;48.770;9.176;2022-12-07T03:35:01;15.95;;;6.70;;
962;SDS011;469;48.770;9.176;2022-12-07T03:37:34;14.00;;;7.03;;
962;SDS011;469;48.770;9.176;2022-12-07T03:40:07;16.15;;;7.30;;
962;SDS011;469;48.770;9.176;2022-12-07T03:42:39;13.95;;;6.63;;
962;SDS011;469;48.770;9.176;2022-12-07T03:45:08;14.68;;;6.57;;
962;SDS011;469;48.770;9.176;2022-12-07T03:47:37;13.68;;;7.22;;
962;SDS011;469;48.770;9.176;2022-12-07T03:50:13;17.95;;;6.88;;
962;SDS011;469;48.770;9.176;2022-12-07T03:52:46;15.60;;;7.13;;
962;SDS011;469;48.770;9.176;2022-12-07T03:55:18;16.52;;;7.28;;
962;SDS011;469;48.770;9.176;2022-12-07T03:57:51;13.40;;;6.72;;
962;SDS011;469;48.770;9.176;2022-12-07T04:00:23;14.13;;;6.78;;
962;SDS011;469;48.770;9.176;2022-12-07T04:02:52;14.73;;;7.13;;
962;SDS011;469;48.770;9.176;2022-12-07T04:05:20;14.95;;;6.70;;
962;SDS011;469;48.770;9.176;2022-12-07T04:07:46;25.95;;;8.27;;
962;SDS011;469;48.770;9.176;2022-12-07T04:10:13;11.65;;;6.13;;
962;SDS011;469;48.770;9.176;2022-12-07T04:12:43;15.77;;;7.15;;
962;SDS011;469;48.770;9.176;2022-12-07T04:15:11;15.77;;;7.65;;
962;SDS011;469;48.770;9.176;2022-12-07T04:17:41;14.65;;;6.40;;
962;SDS011;469;48.770;9.176;2022-12-07T04:20:09;14.88;;;7.28;;
962;SDS011;469;48.770;9.176;2022-12-07T04:22:37;15.95;;;7.47;;
962;SDS011;469;48.770;9.176;2022-12-07T04:25:04;12.60;;;6.47;;
962;SDS011;469;48.770;9.176;2022-12-07T04:27:31;14.10;;;7.65;;
962;SDS011;469;48.770;9.176;2022-12-07T04:29:58;16.13;;;7.53;;
962;SDS011;469;48.770;9.176;2022-12-07T04:32:25;13.73;;;7.13;;
962;SDS011;469;48.770;9.176;2022-12-07T04:34:53;19.05;;;6.65;;
962;SDS011;469;48.770;9.176;2022-12-07T04:37:20;14.38;;;6.63;;
962;SDS011;469;48.770;9.176;2022-12-07T04:39:47;15.70;;;6.65;;
962;SDS011;469;48.770;9.176;2022-12-07T04:42:14;15.55;;;7.13;;
962;SDS011;469;48.770;9.176;2022-12-07T04:44:41;14.75;;;7.03;;
962;SDS011;469;48.770;9.176;2022-12-07T04:47:09;16.20;;;6.53;;
962;SDS011;469;48.770;9.176;2022-12-07T04:49:36;12.80;;;6.03;;
962;SDS011;469;48.770;9.176;2022-12-07T04:52:04;12.32;;;5.80;;
962;SDS011;469;48.770;9.176;2022-12-07T04:54:31;14.80;;;7.05;;
962;SDS011;469;48.770;9.176;2022-12-07T04:56:58;12.85;;;5.35;;
962;SDS011;469;48.770;9.176;2022-12-07T04:59:25;10.85;;;5.72;;
962;SDS011;469;48.770;9.176;2022-12-07T05:01:52;9.45;;;4.90;;
962;SDS011;469;48.770;9.176;2022-12-07T05:04:18;15.55;;;5.30;;
962;SDS011;469;48.770;9.176;2022-12-07T05:06:45;16.48;;;7.75;;
962;SDS011;469;48.770;9.176;2022-12-07T05:09:13;10.43;;;4.72;;
962;SDS011;469;48.770;9.176;2022-12-07T05:11:40;9.32;;;4.80;;
962;SDS011;469;48.770;9.176;2022-12-07T05:14:10;9.18;;;4.78;;
962;SDS011;469;48.770;9.176;2022-12-07T05:16:40;9.70;;;4.20;;
962;SDS011;469;48.770;9.176;2022-12-07T05:19:07;7.88;;;4.30;;
962;SDS011;469;48.770;9.176;2022-12-07T05:21:35;7.57;;;4.15;;
962;SDS011;469;48.770;9.176;2022-12-07T05:24:05;8.77;;;4.03;;
962;SDS011;469;48.770;9.176;2022-12-07T05:26:34;8.70;;;4.07;;
962;SDS011;469;48.770;9.176;2022-12-07T05:29:02;10.45;;;4.90;;
962;SDS011;469;48.770;9.176;2022-12-07T05:31:29;10.73;;;5.43;;
962;SDS011;469;48.770;9.176;2022-12-07T05:33:59;12.23;;;4.43;;
962;SDS011;469;48.770;9.176;2022-12-07T05:36:28;7.90;;;4.10;;
962;SDS011;469;48.770;9.176;2022-12-07T05:38:56;8.48;;;3.78;;
962;SDS011;469;48.770;9.176;2022-12-07T05:41:23;8.05;;;4.45;;
962;SDS011;469;48.770;9.176;2022-12-07T05:44:11;8.68;;;4.03;;
962;SDS011;469;48.770;9.176;2022-12-07T05:46:38;8.23;;;4.20;;
962;SDS011;469;48.770;9.176;2022-12-07T05:49:04;11.23;;;5.35;;
962;SDS011;469;48.770;9.176;2022-12-07T05:51:31;10.52;;;5.28;;
962;SDS011;469;48.770;9.176;2022-12-07T05:53:58;10.63;;;5.43;;
962;SDS011;469;48.770;9.176;2022-12-07T05:56:25;9.55;;;5.05;;
962;SDS011;469;48.770;9.176;2022-12-07T05:58:52;11.20;;;5.03;;
962;SDS011;469;48.770;9.176;2022-12-07T06:01:38;9.10;;;4.95;;
962;SDS011;469;48.770;9.176;2022-12-07T06:04:05;15.75;;;5.13;;
962;SDS011;469;48.770;9.176;2022-12-07T06:06:33;9.07;;;4.57;;
962;SDS011;469;48.770;9.176;2022-12-07T06:09:03;9.05;;;4.57;;
962;SDS011;469;48.770;9.176;2022-12-07T06:11:30;10.85;;;4.68;;
962;SDS011;469;48.770;9.176;2022-12-07T06:14:14;10.88;;;4.32;;
962;SDS011;469;48.770;9.176;2022-12-07T06:16:45;10.20;;;4.47;;
962;SDS011;469;48.770;9.176;2022-12-07T06:19:12;12.02;;;5.60;;
962;SDS011;469;48.770;9.176;2022-12-07T06:21:39;10.38;;;5.22;;
962;SDS011;469;48.770;9.176;2022-12-07T06:24:07;10.98;;;5.15;;
962;SDS011;469;48.770;9.176;2022-12-07T06:26:37;8.68;;;4.47;;
962;SDS011;469;48.770;9.176;2022-12-07T06:29:04;8.65;;;4.35;;
962;SDS011;469;48.770;9.176;2022-12-07T06:31:32;13.90;;;5.25;;
962;SDS011;469;48.770;9.176;2022-12-07T06:34:01;9.45;;;4.38;;
962;SDS011;469;48.770;9.176;2022-12-07T06:36:29;11.50;;;4.97;;
962;SDS011;469;48.770;9.176;2022-12-07T06:38:58;9.70;;;5.10;;
962;SDS011;469;48.770;9.176;2022-12-07T06:41:25;8.93;;;5.00;;
962;SDS011;469;48.770;9.176;2022-12-07T06:43:52;10.25;;;4.85;;
962;SDS011;469;48.770;9.176;2022-12-07T06:46:18;9.35;;;4.65;;
962;SDS011;469;48.770;9.176;2022-12-07T06:48:46;11.68;;;5.47;;
962;SDS011;469;48.770;9.176;2022-12-07T06:51:14;9.93;;;5.05;;
962;SDS011;469;48.770;9.176;2022-12-07T06:53:41;14.07;;;5.70;;
962;SDS011;469;48.770;9.176;2022-12-07T06:56:08;11.57;;;5.45;;
962;SDS011;469;48.770;9.176;2022-12-07T06:58:35;10.38;;;5.03;;
962;SDS011;469;48.770;9.176;2022-12-07T07:01:01;9.98;;;5.10;;
962;SDS011;469;48.770;9.176;2022-12-07T07:03:29;10.80;;;5.22;;
962;SDS011;469;48.770;9.176;2022-12-07T07:05:56;9.55;;;4.45;;
962;SDS011;469;48.770;9.176;2022-12-07T07:08:24;20.67;;;5.90;;
962;SDS011;469;48.770;9.176;2022-12-07T08:02:31;13.00;;;5.30;;
962;SDS011;469;48.770;9.176;2022-12-07T08:04:55;11.45;;;4.63;;
962;SDS011;469;48.770;9.176;2022-12-07T08:08:08;15.90;;;5.45;;
962;SDS011;469;48.770;9.176;2022-12-07T08:12:48;12.05;;;5.10;;
962;SDS011;469;48.770;9.176;2022-12-07T08:47:33;11.98;;;6.15;;
962;SDS011;469;48.770;9.176;2022-12-07T08:56:48;13.10;;;5.13;;
962;SDS011;469;48.770;9.176;2022-12-07T08:59:18;8.55;;;3.88;;
962;SDS011;469;48.770;9.176;2022-12-07T09:45:12;10.30;;;4.30;;
962;SDS011;469;48.770;9.176;2022-12-07T09:47:41;9.10;;;4.18;;
962;SDS011;469;48.770;9.176;2022-12-07T09:50:12;6.45;;;3.30;;
962;SDS011;469;48.770;9.176;2022-12-07T09:53:24;12.40;;;3.55;;
962;SDS011;469;48.770;9.176;2022-12-07T09:56:15;6.60;;;3.17;;
962;SDS011;469;48.770;9.176;2022-12-07T09:59:12;6.95;;;3.00;;
962;SDS011;469;48.770;9.176;2022-12-07T10:04:50;5.93;;;3.03;;
962;SDS011;469;48.770;9.176;2022-12-07T10:07:30;8.13;;;3.45;;
962;SDS011;469;48.770;9.176;2022-12-07T10:12:55;4.93;;;2.40;;
962;SDS011;469;48.770;9.176;2022-12-07T10:15:40;6.55;;;2.83;;
962;SDS011;469;48.770;9.176;2022-12-07T10:18:17;8.60;;;3.38;;
962;SDS011;469;48.770;9.176;2022-12-07T10:21:01;10.60;;;2.83;;
962;SDS011;469;48.770;9.176;2022-12-07T10:23:34;7.72;;;3.80;;
962;SDS011;469;48.770;9.176;2022-12-07T10:26:25;4.95;;;2.58;;
962;SDS011;469;48.770;9.176;2022-12-07T10:28:55;9.48;;;3.33;;
962;SDS011;469;48.770;9.176;2022-12-07T10:31:25;7.53;;;3.25;;
962;SDS011;469;48.770;9.176;2022-12-07T10:33:55;9.00;;;2.30;;
962;SDS011;469;48.770;9.176;2022-12-07T10:36:42;8.32;;;2.65;;
962;SDS011;469;48.770;9.176;2022-12-07T10:39:16;4.00;;;2.28;;
962;SDS011;469;48.770;9.176;2022-12-07T10:41:55;5.88;;;3.10;;
962;SDS011;469;48.770;9.176;2022-12-07T10:44:24;5.30;;;2.50;;
962;SDS011;469;48.770;9.176;2022-12-07T10:47:01;6.45;;;2.70;;
962;SDS011;469;48.770;9.176;2022-12-07T10:49:55;14.95;;;3.13;;
962;SDS011;469;48.770;9.176;2022-12-07T10:55:56;6.00;;;2.20;;
962;SDS011;469;48.770;9.176;2022-12-07T10:58:59;5.82;;;2.40;;
962;SDS011;469;48.770;9.176;2022-12-07T11:01:45;6.80;;;3.10;;
962;SDS011;469;48.770;9.176;2022-12-07T11:04:19;6.03;;;2.33;;
962;SDS011;469;48.770;9.176;2022-12-07T11:07:00;4.15;;;2.22;;
962;SDS011;469;48.770;9.176;2022-12-07T11:09:42;5.38;;;3.30;;
962;SDS011;469;48.770;9.176;2022-12-07T11:12:26;8.07;;;2.90;;
962;SDS011;469;48.770;9.176;2022-12-07T11:15:12;7.68;;;2.83;;
962;SDS011;469;48.770;9.176;2022-12-07T11:17:45;4.38;;;2.55;;
962;SDS011;469;48.770;9.176;2022-12-07T11:20:29;6.10;;;3.10;;
962;SDS011;469;48.770;9.176;2022-12-07T11:23:04;5.90;;;2.80;;
962;SDS011;469;48.770;9.176;2022-12-07T11:25:46;7.25;;;2.88;;
962;SDS011;469;48.770;9.176;2022-12-07T11:28:26;6.88;;;3.15;;
962;SDS011;469;48.770;9.176;2022-12-07T11:31:07;7.65;;;2.97;;
962;SDS011;469;48.770;9.176;2022-12-07T11:33:40;7.25;;;2.80;;
962;SDS011;469;48.770;9.176;2022-12-07T11:36:26;5.07;;;2.67;;
962;SDS011;469;48.770;9.176;2022-12-07T11:39:03;7.38;;;3.30;;
962;SDS011;469;48.770;9.176;2022-12-07T11:41:40;6.25;;;2.15;;
962;SDS011;469;48.770;9.176;2022-12-07T11:44:15;3.75;;;2.08;;
962;SDS011;469;48.770;9.176;2022-12-07T11:49:56;5.80;;;2.10;;
962;SDS011;469;48.770;9.176;2022-12-07T11:52:51;8.57;;;2.15;;
962;SDS011;469;48.770;9.176;2022-12-07T11:55:26;6.03;;;2.28;;
962;SDS011;469;48.770;9.176;2022-12-07T11:58:03;4.80;;;2.33;;
962;SDS011;469;48.770;9.176;2022-12-07T12:00:38;5.85;;;1.90;;
962;SDS011;469;48.770;9.176;2022-12-07T12:03:08;13.02;;;1.90;;
962;SDS011;469;48.770;9.176;2022-12-07T12:05:41;3.70;;;1.88;;
962;SDS011;469;48.770;9.176;2022-12-07T12:08:13;4.25;;;2.63;;
962;SDS011;469;48.770;9.176;2022-12-07T12:10:50;8.50;;;2.70;;
962;SDS011;469;48.770;9.176;2022-12-07T12:13:41;6.65;;;3.08;;
962;SDS011;469;48.770;9.176;2022-12-07T12:16:34;10.70;;;3.38;;
962;SDS011;469;48.770;9.176;2022-12-07T12:19:32;10.50;;;3.80;;
962;SDS011;469;48.770;9.176;2022-12-07T12:22:04;9.13;;;3.97;;
962;SDS011;469;48.770;9.176;2022-12-07T12:24:38;8.75;;;3.83;;
962;SDS011;469;48.770;9.176;2022-12-07T12:27:21;10.10;;;4.20;;
962;SDS011;469;48.770;9.176;2022-12-07T12:32:53;7.60;;;3.85;;
962;SDS011;469;48.770;9.176;2022-12-07T12:35:41;7.70;;;3.90;;
962;SDS011;469;48.770;9.176;2022-12-07T12:40:58;9.48;;;4.07;;
962;SDS011;469;48.770;9.176;2022-12-07T12:43:50;8.38;;;4.15;;
962;SDS011;469;48.770;9.176;2022-12-07T12:49:33;5.03;;;2.85;;
962;SDS011;469;48.770;9.176;2022-12-07T12:55:43;6.97;;;3.25;;
962;SDS011;469;48.770;9.176;2022-12-07T12:58:34;10.20;;;4.05;;
962;SDS011;469;48.770;9.176;2022-12-07T13:04:03;9.23;;;3.90;;
962;SDS011;469;48.770;9.176;2022-12-07T13:06:49;10.93;;;3.70;;
962;SDS011;469;48.770;9.176;2022-12-07T13:09:21;8.68;;;3.45;;
962;SDS011;469;48.770;9.176;2022-12-07T13:11:55;7.45;;;3.67;;
962;SDS011;469;48.770;9.176;2022-12-07T13:20:43;7.57;;;3.50;;
962;SDS011;469;48.770;9.176;2022-12-07T13:23:19;6.68;;;3.15;;
962;SDS011;469;48.770;9.176;2022-12-07T13:25:54;5.78;;;3.03;;
962;SDS011;469;48.770;9.176;2022-12-07T13:28:27;4.93;;;3.20;;
962;SDS011;469;48.770;9.176;2022-12-07T13:34:01;7.35;;;3.45;;
962;SDS011;469;48.770;9.176;2022-12-07T13:36:31;7.65;;;3.25;;
962;SDS011;469;48.770;9.176;2022-12-07T13:39:16;13.98;;;3.33;;
962;SDS011;469;48.770;9.176;2022-12-07T13:41:49;6.70;;;3.17;;
962;SDS011;469;48.770;9.176;2022-12-07T13:50:54;6.60;;;2.63;;
962;SDS011;469;48.770;9.176;2022-12-07T13:54:14;6.10;;;2.60;;
962;SDS011;469;48.770;9.176;2022-12-07T14:00:20;5.22;;;2.85;;
962;SDS011;469;48.770;9.176;2022-12-07T14:09:27;6.45;;;3.30;;
962;SDS011;469;48.770;9.176;2022-12-07T14:12:32;7.30;;;3.05;;
962;SDS011;469;48.770;9.176;2022-12-07T14:15:17;4.65;;;2.60;;
962;SDS011;469;48.770;9.176;2022-12-07T14:18:02;6.30;;;3.20;;
962;SDS011;469;48.770;9.176;2022-12-07T14:20:31;6.95;;;3.58;;
962;SDS011;469;48.770;9.176;2022-12-07T14:23:21;6.50;;;3.20;;
962;SDS011;469;48.770;9.176;2022-12-07T14:26:09;8.60;;;3.38;;
962;SDS011;469;48.770;9.176;2022-12-07T14:28:42;10.10;;;3.95;;
962;SDS011;469;48.770;9.176;2022-12-07T14:31:24;6.88;;;3.92;;
962;SDS011;469;48.770;9.176;2022-12-07T14:34:37;6.97;;;3.30;;
962;SDS011;469;48.770;9.176;2022-12-07T14:37:48;7.10;;;3.63;;
962;SDS011;469;48.770;9.176;2022-12-07T15:08:59;8.40;;;3.70;;
962;SDS011;469;48.770;9.176;2022-12-07T15:11:51;7.70;;;3.63;;
962;SDS011;469;48.770;9.176;2022-12-07T15:15:02;12.25;;;4.97;;
962;SDS011;469;48.770;9.176;2022-12-07T15:18:13;8.52;;;3.95;;
962;SDS011;469;48.770;9.176;2022-12-07T15:21:00;8.90;;;4.18;;
962;SDS011;469;48.770;9.176;2022-12-07T15:24:00;9.20;;;4.03;;
962;SDS011;469;48.770;9.176;2022-12-07T15:29:47;9.27;;;3.95;;
962;SDS011;469;48.770;9.176;2022-12-07T15:32:30;9.25;;;4.25;;
962;SDS011;469;48.770;9.176;2022-12-07T15:34:57;10.68;;;3.63;;
962;SDS011;469;48.770;9.176;2022-12-07T15:37:31;15.05;;;4.25;;
962;SDS011;469;48.770;9.176;2022-12-07T15:40:11;8.20;;;4.00;;
962;SDS011;469;48.770;9.176;2022-12-07T15:45:56;8.70;;;4.07;;
962;SDS011;469;48.770;9.176;2022-12-07T18:42:07;16.67;;;7.00;;
962;SDS011;469;48.770;9.176;2022-12-07T18:48:30;13.95;;;6.72;;
962;SDS011;469;48.770;9.176;2022-12-07T18:51:16;17.95;;;7.40;;
962;SDS011;469;48.770;9.176;2022-12-07T18:53:46;15.32;;;7.05;;
962;SDS011;469;48.770;9.176;2022-12-07T18:56:14;11.90;;;5.75;;
962;SDS011;469;48.770;9.176;2022-12-07T18:58:47;11.63;;;5.82;;
962;SDS011;469;48.770;9.176;2022-12-07T19:01:33;15.63;;;7.25;;
962;SDS011;469;48.770;9.176;2022-12-07T19:04:00;17.48;;;7.82;;
962;SDS011;469;48.770;9.176;2022-12-07T19:06:29;17.13;;;7.22;;
962;SDS011;469;48.770;9.176;2022-12-07T19:08:56;13.10;;;6.20;;
962;SDS011;469;48.770;9.176;2022-12-07T19:11:24;15.95;;;6.25;;
962;SDS011;469;48.770;9.176;2022-12-07T19:14:11;12.55;;;5.57;;
962;SDS011;469;48.770;9.176;2022-12-07T19:16:46;13.02;;;5.80;;
962;SDS011;469;48.770;9.176;2022-12-07T19:19:15;16.20;;;7.25;;
962;SDS011;469;48.770;9.176;2022-12-07T19:21:45;16.00;;;7.85;;
962;SDS011;469;48.770;9.176;2022-12-07T19:24:17;10.43;;;5.65;;
962;SDS011;469;48.770;9.176;2022-12-07T19:26:48;11.60;;;5.80;;
962;SDS011;469;48.770;9.176;2022-12-07T19:29:21;14.38;;;6.20;;
962;SDS011;469;48.770;9.176;2022-12-07T19:31:55;16.63;;;6.43;;
962;SDS011;469;48.770;9.176;2022-12-07T19:34:22;13.63;;;6.57;;
962;SDS011;469;48.770;9.176;2022-12-07T19:36:49;15.07;;;5.90;;
962;SDS011;469;48.770;9.176;2022-12-07T19:39:22;12.25;;;6.13;;
962;SDS011;469;48.770;9.176;2022-12-07T19:41:49;12.57;;;6.53;;
962;SDS011;469;48.770;9.176;2022-12-07T19:44:16;12.15;;;5.97;;
962;SDS011;469;48.770;9.176;2022-12-07T19:46:51;12.55;;;6.03;;
962;SDS011;469;48.770;9.176;2022-12-07T19:49:25;13.68;;;6.25;;
962;SDS011;469;48.770;9.176;2022-12-07T19:51:54;9.82;;;4.82;;
962;SDS011;469;48.770;9.176;2022-12-07T19:54:24;15.48;;;6.00;;
962;SDS011;469;48.770;9.176;2022-12-07T19:56:52;11.90;;;6.18;;
962;SDS011;469;48.770;9.176;2022-12-07T19:59:21;12.65;;;6.03;;
962;SDS011;469;48.770;9.176;2022-12-07T20:01:51;12.55;;;5.70;;
962;SDS011;469;48.770;9.176;2022-12-07T20:04:19;9.20;;;5.20;;
962;SDS011;469;48.770;9.176;2022-12-07T20:06:51;11.10;;;5.13;;
962;SDS011;469;48.770;9.176;2022-12-07T20:09:20;13.18;;;5.97;;
962;SDS011;469;48.770;9.176;2022-12-07T20:11:50;13.30;;;5.93;;
962;SDS011;469;48.770;9.176;2022-12-07T20:14:42;10.80;;;5.25;;
962;SDS011;469;48.770;9.176;2022-12-07T20:17:31;15.70;;;5.70;;
962;SDS011;469;48.770;9.176;2022-12-07T20:20:02;13.80;;;5.63;;
962;SDS011;469;48.770;9.176;2022-12-07T20:22:30;12.00;;;5.85;;
962;SDS011;469;48.770;9.176;2022-12-07T20:24:59;13.63;;;6.13;;
962;SDS011;469;48.770;9.176;2022-12-07T20:27:26;13.25;;;5.50;;
962;SDS011;469;48.770;9.176;2022-12-07T20:29:56;13.35;;;6.28;;
962;SDS011;469;48.770;9.176;2022-12-07T20:32:24;11.32;;;5.63;;
962;SDS011;469;48.770;9.176;2022-12-07T20:34:53;14.85;;;6.28;;
962;SDS011;469;48.770;9.176;2022-12-07T20:37:20;12.73;;;6.50;;
962;SDS011;469;48.770;9.176;2022-12-07T20:39:50;14.05;;;5.90;;
962;SDS011;469;48.770;9.176;2022-12-07T20:42:17;12.82;;;6.22;;
962;SDS011;469;48.770;9.176;2022-12-07T20:45:02;11.95;;;5.68;;
962;SDS011;469;48.770;9.176;2022-12-07T20:47:33;11.60;;;5.57;;
962;SDS011;469;48.770;9.176;2022-12-07T20:50:02;13.50;;;6.00;;
962;SDS011;469;48.770;9.176;2022-12-07T20:52:30;11.10;;;5.80;;
962;SDS011;469;48.770;9.176;2022-12-07T20:54:59;11.75;;;6.03;;
962;SDS011;469;48.770;9.176;2022-12-07T20:57:29;52.58;;;24.02;;
962;SDS011;469;48.770;9.176;2022-12-07T21:00:03;56.10;;;23.48;;
962;SDS011;469;48.770;9.176;2022-12-07T21:02:40;15.65;;;6.30;;
962;SDS011;469;48.770;9.176;2022-12-07T21:05:08;14.25;;;7.20;;
962;SDS011;469;48.770;9.176;2022-12-07T21:07:35;14.10;;;6.30;;
962;SDS011;469;48.770;9.176;2022-12-07T21:10:07;16.35;;;6.95;;
962;SDS011;469;48.770;9.176;2022-12-07T21:12:36;13.43;;;5.65;;
962;SDS011;469;48.770;9.176;2022-12-07T21:17:46;12.05;;;5.43;;
962;SDS011;469;48.770;9.176;2022-12-07T21:20:28;12.63;;;5.90;;
962;SDS011;469;48.770;9.176;2022-12-07T21:23:11;12.10;;;5.88;;
962;SDS011;469;48.770;9.176;2022-12-07T21:25:42;12.80;;;6.00;;
962;SDS011;469;48.770;9.176;2022-12-07T21:28:14;16.95;;;6.55;;
962;SDS011;469;48.770;9.176;2022-12-07T21:31:03;12.90;;;6.10;;
962;SDS011;469;48.770;9.176;2022-12-07T21:33:34;24.88;;;11.05;;
962;SDS011;469;48.770;9.176;2022-12-07T21:36:22;13.40;;;6.60;;
962;SDS011;469;48.770;9.176;2022-12-07T21:39:29;15.77;;;6.10;;
962;SDS011;469;48.770;9.176;2022-12-07T21:42:13;16.83;;;8.27;;
962;SDS011;469;48.770;9.176;2022-12-07T21:45:26;17.38;;;7.75;;
962;SDS011;469;48.770;9.176;2022-12-07T21:47:47;14.50;;;6.45;;
962;SDS011;469;48.770;9.176;2022-12-07T21:50:23;16.80;;;6.18;;
962;SDS011;469;48.770;9.176;2022-12-07T21:53:23;13.32;;;6.25;;
962;SDS011;469;48.770;9.176;2022-12-07T21:55:57;13.35;;;6.50;;
962;SDS011;469;48.770;9.176;2022-12-07T21:58:50;13.30;;;6.28;;
962;SDS011;469;48.770;9.176;2022-12-07T22:04:54;13.68;;;6.28;;
962;SDS011;469;48.770;9.176;2022-12-07T22:08:00;15.63;;;6.65;;
962;SDS011;469;48.770;9.176;2022-12-07T22:13:41;13.52;;;6.45;;
962;SDS011;469;48.770;9.176;2022-12-07T22:16:33;12.35;;;6.28;;
962;SDS011;469;48.770;9.176;2022-12-07T22:19:11;17.05;;;7.40;;
962;SDS011;469;48.770;9.176;2022-12-07T22:21:47;15.30;;;6.72;;
962;SDS011;469;48.770;9.176;2022-12-07T22:24:24;14.65;;;6.38;;
962;SDS011;469;48.770;9.176;2022-12-07T22:27:10;15.52;;;6.68;;
962;SDS011;469;48.770;9.176;2022-12-07T22:30:19;14.57;;;6.78;;
962;SDS011;469;48.770;9.176;2022-12-07T22:33:02;17.77;;;7.28;;
962;SDS011;469;48.770;9.176;2022-12-07T22:35:50;12.93;;;6.55;;
962;SDS011;469;48.770;9.176;2022-12-07T22:38:17;15.63;;;6.57;;
962;SDS011;469;48.770;9.176;2022-12-07T22:40:45;19.08;;;9.07;;
962;SDS011;469;48.770;9.176;2022-12-07T22:43:17;15.90;;;7.15;;
962;SDS011;469;48.770;9.176;2022-12-07T22:45:52;15.32;;;7.25;;
962;SDS011;469;48.770;9.176;2022-12-07T22:48:27;13.80;;;6.53;;
962;SDS011;469;48.770;9.176;2022-12-07T22:51:00;17.58;;;7.28;;
962;SDS011;469;48.770;9.176;2022-12-07T22:53:30;17.65;;;6.65;;
962;SDS011;469;48.770;9.176;2022-12-07T22:56:00;17.25;;;7.20;;
962;SDS011;469;48.770;9.176;2022-12-07T22:58:47;14.32;;;6.45;;
962;SDS011;469;48.770;9.176;2022-12-07T23:01:27;13.35;;;6.20;;
962;SDS011;469;48.770;9.176;2022-12-07T23:04:00;16.92;;;7.30;;
962;SDS011;469;48.770;9.176;2022-12-07T23:06:31;14.52;;;7.20;;
962;SDS011;469;48.770;9.176;2022-12-07T23:09:05;11.68;;;6.00;;
962;SDS011;469;48.770;9.176;2022-12-07T23:11:47;14.02;;;6.15;;
962;SDS011;469;48.770;9.176;2022-12-07T23:14:47;16.25;;;6.70;;
962;SDS011;469;48.770;9.176;2022-12-07T23:17:21;19.77;;;7.20;;
962;SDS011;469;48.770;9.176;2022-12-07T23:19:51;18.75;;;6.25;;
962;SDS011;469;48.770;9.176;2022-12-07T23:22:21;12.57;;;6.22;;
962;SDS011;469;48.770;9.176;2022-12-07T23:25:03;12.35;;;6.03;;
962;SDS011;469;48.770;9.176;2022-12-07T23:27:32;19.42;;;6.18;;
962;SDS011;469;48.770;9.176;2022-12-07T23:30:05;12.38;;;5.57;;
962;SDS011;469;48.770;9.176;2022-12-07T23:32:45;19.60;;;7.20;;
962;SDS011;469;48.770;9.176;2022-12-07T23:35:22;14.88;;;6.43;;
962;SDS011;469;48.770;9.176;2022-12-07T23:37:49;12.05;;;5.63;;
962;SDS011;469;48.770;9.176;2022-12-07T23:40:26;13.35;;;6.40;;
962;SDS011;469;48.770;9.176;2022-12-07T23:42:58;12.32;;;6.15;;
962;SDS011;469;48.770;9.176;2022-12-07T23:45:29;13.38;;;6.13;;
962;SDS011;469;48.770;9.176;2022-12-07T23:48:21;11.68;;;5.88;;
962;SDS011;469;48.770;9.176;2022-12-07T23:51:03;18.10;;;6.28;;
962;SDS011;469;48.770;9.176;2022-12-07T23:53:37;11.27;;;5.13;;
962;SDS011;469;48.770;9.176;2022-12-07T23:59:11;12.82;;;6.00;;
